Time;durP1;ratioP1;P1;durP2;ratioP2;P2;SDS_P1;SDS_P2;PMS_P1;PMS_P2;Temp;Humidity;BMP_temperature;BMP_pressure;BME280_temperature;BME280_humidity;BME280_pressure;Samples;Min_cycle;Max_cycle;Signal;HPM_P1;HPM_P2
2024/01/15 00:00:13;;;;;;;5.00;1.25;;;;;;;-0.12;100.00;100071.19;1018037;29;20882;-51
2024/01/15 00:01:14;;;;;;;4.60;2.00;;;;;;;-0.11;100.00;100062.34;1022459;29;20299;-46
2024/01/15 00:02:31;;;;;;;9.25;1.38;;;;;;;-0.12;100.00;100055.47;1006459;29;20313;-50
2024/01/15 00:03:19;;;;;;;1.77;1.15;;;;;;;-0.10;100.00;100066.59;1009145;29;20304;-49
2024/01/15 00:04:19;;;;;;;6.82;2.25;;;;;;;-0.11;100.00;100054.50;1020114;28;20863;-46
2024/01/15 00:05:38;;;;;;;5.72;0.88;;;;;;;-0.19;100.00;100059.75;1026240;28;20059;-51
2024/01/15 00:06:34;;;;;;;7.65;2.08;;;;;;;-0.14;100.00;100062.69;1021742;29;20473;-50
2024/01/15 00:07:41;;;;;;;12.57;1.30;;;;;;;-0.22;100.00;100057.47;1017781;29;20308;-50
2024/01/15 00:08:24;;;;;;;5.65;1.67;;;;;;;-0.15;100.00;100066.28;1016164;29;20317;-46
2024/01/15 00:09:28;;;;;;;5.05;1.55;;;;;;;-0.24;100.00;100057.63;1018889;29;20847;-50
2024/01/15 00:10:46;;;;;;;4.25;1.50;;;;;;;-0.21;100.00;100054.69;1017929;29;20339;-46
2024/01/15 00:11:47;;;;;;;11.60;2.00;;;;;;;-0.34;100.00;100057.78;1020501;29;20350;-50
2024/01/15 00:13:00;;;;;;;3.13;1.77;;;;;;;-0.37;100.00;100052.88;1013708;29;20393;-51
2024/01/15 00:13:54;;;;;;;3.25;2.00;;;;;;;-0.38;100.00;100050.44;1025788;28;20302;-49
2024/01/15 00:14:48;;;;;;;6.43;1.67;;;;;;;-0.38;100.00;100051.25;1021224;29;20287;-50
2024/01/15 00:15:46;;;;;;;4.63;1.20;;;;;;;-0.28;100.00;100050.25;1020108;29;20316;-51
2024/01/15 00:18:25;;;;;;;8.20;1.27;;;;;;;-0.21;100.00;100046.03;1025155;28;20379;-51
2024/01/15 00:19:32;;;;;;;3.35;1.55;;;;;;;-0.28;100.00;100039.78;1019170;29;20344;-50
2024/01/15 00:20:45;;;;;;;4.57;1.42;;;;;;;-0.38;100.00;100043.41;1018500;29;20346;-50
2024/01/15 00:21:31;;;;;;;3.97;1.55;;;;;;;-0.29;100.00;100035.53;1022990;28;20318;-45
2024/01/15 00:22:28;;;;;;;5.45;1.48;;;;;;;-0.28;100.00;100039.78;1022407;29;20315;-50
2024/01/15 00:23:45;;;;;;;3.60;1.95;;;;;;;-0.40;100.00;100037.53;1019159;29;20296;-47
2024/01/15 00:24:55;;;;;;;9.57;2.00;;;;;;;-0.42;100.00;100036.06;1021520;29;22073;-48
2024/01/15 00:25:39;;;;;;;6.07;1.92;;;;;;;-0.39;100.00;100038.34;1019919;29;20314;-50
2024/01/15 00:26:38;;;;;;;3.10;1.45;;;;;;;-0.33;100.00;100043.72;1020345;29;20346;-48
2024/01/15 00:27:35;;;;;;;11.80;2.05;;;;;;;-0.40;100.00;100048.00;1015866;29;20476;-50
2024/01/15 00:28:24;;;;;;;8.65;1.80;;;;;;;-0.41;100.00;100040.31;1018498;29;20307;-47
2024/01/15 00:29:39;;;;;;;6.45;2.63;;;;;;;-0.41;100.00;100037.69;1017252;29;20288;-50
2024/01/15 00:30:50;;;;;;;2.78;1.13;;;;;;;-0.43;100.00;100040.47;1022721;28;20287;-46
2024/01/15 00:31:37;;;;;;;8.20;1.50;;;;;;;-0.33;100.00;100042.91;1024796;29;20366;-46
2024/01/15 00:32:32;;;;;;;6.28;1.65;;;;;;;-0.33;100.00;100033.25;1026599;28;20396;-45
2024/01/15 00:33:58;;;;;;;3.28;1.60;;;;;;;-0.39;100.00;100036.53;1022100;29;20339;-45
2024/01/15 00:34:46;;;;;;;5.95;1.65;;;;;;;-0.40;100.00;100042.75;1016643;29;20872;-51
2024/01/15 00:35:37;;;;;;;7.10;1.80;;;;;;;-0.37;100.00;100031.97;1027441;28;20313;-46
2024/01/15 00:36:38;;;;;;;2.78;1.48;;;;;;;-0.43;100.00;100035.25;1028178;28;20047;-51
2024/01/15 00:38:39;;;;;;;7.03;1.42;;;;;;;-0.40;100.00;100032.28;1030088;28;20302;-48
2024/01/15 00:39:28;;;;;;;11.48;2.35;;;;;;;-0.41;100.00;100041.13;1026227;28;20295;-50
2024/01/15 00:40:07;;;;;;;7.32;1.90;;;;;;;-0.39;100.00;100028.69;1023538;28;20314;-51
2024/01/15 00:43:49;;;;;;;2.65;1.15;;;;;;;-0.34;100.00;100025.56;1032050;28;20356;-45
2024/01/15 00:44:35;;;;;;;10.77;1.50;;;;;;;-0.40;100.00;100027.06;1029183;28;20047;-47
2024/01/15 00:45:17;;;;;;;6.47;1.48;;;;;;;-0.46;100.00;100019.88;1023668;29;20314;-50
2024/01/15 00:46:16;;;;;;;3.85;1.58;;;;;;;-0.49;100.00;100022.00;1024353;28;20310;-46
2024/01/15 00:47:13;;;;;;;5.25;1.45;;;;;;;-0.47;100.00;100020.88;1025560;29;20311;-46
2024/01/15 00:48:07;;;;;;;6.93;1.23;;;;;;;-0.51;100.00;100022.19;1027429;28;20350;-50
2024/01/15 00:48:54;;;;;;;6.07;1.65;;;;;;;-0.51;100.00;100024.78;1030384;28;20404;-47
2024/01/15 00:49:45;;;;;;;1.50;1.10;;;;;;;-0.51;100.00;100024.78;1018146;29;20307;-50
2024/01/15 00:51:02;;;;;;;6.55;1.48;;;;;;;-0.51;100.00;100026.59;1016126;29;20305;-46
2024/01/15 00:51:45;;;;;;;3.28;1.30;;;;;;;-0.53;100.00;100020.72;1024631;28;20337;-45
2024/01/15 00:52:25;;;;;;;10.55;1.85;;;;;;;-0.54;100.00;100025.13;1028461;28;20055;-49
2024/01/15 00:54:40;;;;;;;8.77;1.17;;;;;;;-0.51;100.00;100009.09;1031667;28;20328;-49
2024/01/15 00:55:23;;;;;;;13.55;1.23;;;;;;;-0.50;100.00;100013.34;1028795;28;20317;-51
2024/01/15 00:56:35;;;;;;;4.45;0.98;;;;;;;-0.47;100.00;100018.25;1028841;28;20350;-50
2024/01/15 00:57:36;;;;;;;12.48;1.77;;;;;;;-0.49;100.00;100017.59;1028022;28;20337;-48
2024/01/15 00:58:48;;;;;;;5.05;1.52;;;;;;;-0.44;100.00;100015.31;1019963;28;20319;-50
2024/01/15 00:59:57;;;;;;;2.30;1.80;;;;;;;-0.48;100.00;100010.56;1034612;28;20364;-50
2024/01/15 01:01:17;;;;;;;7.47;2.47;;;;;;;-0.46;100.00;100006.81;1024109;28;20311;-50
2024/01/15 01:02:17;;;;;;;5.97;1.80;;;;;;;-0.46;100.00;100005.97;1024747;29;20350;-50
2024/01/15 01:03:00;;;;;;;5.95;1.38;;;;;;;-0.42;100.00;100004.66;1024308;28;20895;-45
2024/01/15 01:05:58;;;;;;;2.95;0.98;;;;;;;-0.40;100.00;100000.91;1027661;28;20337;-46
2024/01/15 01:06:48;;;;;;;7.00;1.13;;;;;;;-0.42;100.00;99997.63;1031904;28;20301;-46
2024/01/15 01:07:39;;;;;;;3.42;1.10;;;;;;;-0.43;100.00;99993.38;1030053;28;20365;-51
2024/01/15 01:09:21;;;;;;;13.10;1.38;;;;;;;-0.39;100.00;99997.31;1030697;28;20314;-49
2024/01/15 01:10:26;;;;;;;5.88;1.17;;;;;;;-0.38;100.00;99987.66;1034861;28;20697;-49
2024/01/15 01:11:31;;;;;;;4.90;0.93;;;;;;;-0.50;100.00;99989.81;1025426;29;21705;-45
2024/01/15 01:12:29;;;;;;;7.20;1.27;;;;;;;-0.47;100.00;99986.84;1017040;28;20054;-45
2024/01/15 01:13:36;;;;;;;8.25;1.02;;;;;;;-0.42;100.00;99983.75;1014705;29;20083;-50
2024/01/15 01:14:35;;;;;;;7.55;1.50;;;;;;;-0.45;100.00;99987.50;1023100;28;20044;-50
2024/01/15 01:15:28;;;;;;;7.15;1.02;;;;;;;-0.43;100.00;99977.69;1024765;28;20303;-48
2024/01/15 01:16:15;;;;;;;6.88;1.23;;;;;;;-0.50;100.00;99981.97;1028440;28;20318;-50
2024/01/15 01:17:07;;;;;;;3.55;1.38;;;;;;;-0.49;100.00;99978.38;1030039;28;20298;-50
2024/01/15 01:18:08;;;;;;;2.33;1.42;;;;;;;-0.49;100.00;99980.97;1026181;28;21205;-49
2024/01/15 01:19:00;;;;;;;14.43;2.85;;;;;;;-0.57;100.00;99980.97;1027243;28;20333;-45
2024/01/15 01:20:06;;;;;;;9.40;1.52;;;;;;;-0.60;100.00;99978.69;1020647;28;20362;-50
2024/01/15 01:21:04;;;;;;;4.75;1.48;;;;;;;-0.49;100.00;99980.97;1026426;29;20319;-46
2024/01/15 01:22:08;;;;;;;8.77;1.20;;;;;;;-0.54;100.00;99988.50;1029873;28;20358;-45
2024/01/15 01:23:19;;;;;;;11.10;1.95;;;;;;;-0.55;100.00;99980.81;1025946;28;20876;-47
2024/01/15 01:24:15;;;;;;;5.72;1.20;;;;;;;-0.62;100.00;99983.25;1028714;28;20377;-45
2024/01/15 01:25:16;;;;;;;8.40;1.98;;;;;;;-0.55;100.00;99981.63;1026162;28;20368;-45
2024/01/15 01:26:56;;;;;;;8.38;1.30;;;;;;;-0.57;100.00;99983.59;1023863;29;20334;-50
2024/01/15 01:28:16;;;;;;;5.28;1.88;;;;;;;-0.56;100.00;99979.16;1029359;28;20306;-51
2024/01/15 01:29:12;;;;;;;3.13;0.95;;;;;;;-0.53;100.00;99982.28;1023528;29;20307;-48
2024/01/15 01:30:29;;;;;;;8.40;1.45;;;;;;;-0.58;100.00;99981.94;1022369;29;20366;-50
2024/01/15 01:31:16;;;;;;;8.50;1.25;;;;;;;-0.57;100.00;99991.44;1019456;29;20423;-45
2024/01/15 01:32:07;;;;;;;15.00;3.47;;;;;;;-0.55;100.00;99981.63;1019437;29;20302;-47
2024/01/15 01:33:06;;;;;;;4.43;1.38;;;;;;;-0.54;100.00;99983.28;1023978;29;20795;-51
2024/01/15 01:34:10;;;;;;;3.47;0.90;;;;;;;-0.55;100.00;99978.19;1022832;29;20307;-46
2024/01/15 01:35:07;;;;;;;5.47;1.30;;;;;;;-0.59;100.00;99979.50;1007560;29;20318;-44
2024/01/15 01:35:56;;;;;;;8.43;1.20;;;;;;;-0.66;100.00;99976.75;1021915;29;20319;-50
2024/01/15 01:36:57;;;;;;;9.52;2.20;;;;;;;-0.56;100.00;99979.16;1030460;28;20313;-46
2024/01/15 01:38:13;;;;;;;5.57;1.77;;;;;;;-0.55;100.00;99976.38;1029700;28;20047;-46
2024/01/15 01:39:14;;;;;;;5.07;0.85;;;;;;;-0.53;100.00;99979.69;1021674;29;20321;-46
2024/01/15 01:40:05;;;;;;;10.80;1.58;;;;;;;-0.57;100.00;99977.53;1024385;29;20306;-48
2024/01/15 01:40:49;;;;;;;3.97;0.70;;;;;;;-0.56;100.00;99972.13;1023514;28;20319;-46
2024/01/15 01:42:10;;;;;;;11.15;1.17;;;;;;;-0.64;100.00;99982.63;1030261;28;20306;-45
2024/01/15 01:43:24;;;;;;;13.35;1.20;;;;;;;-0.64;100.00;99977.38;1023570;28;20467;-49
2024/01/15 01:45:38;;;;;;;7.40;1.35;;;;;;;-0.67;100.00;99978.53;1027862;28;20417;-46
2024/01/15 01:46:50;;;;;;;7.55;1.25;;;;;;;-0.70;100.00;99984.09;1022110;29;20348;-47
2024/01/15 01:48:03;;;;;;;10.98;1.02;;;;;;;-0.71;100.00;99976.41;1023263;29;20303;-48
2024/01/15 01:49:21;;;;;;;9.30;3.05;;;;;;;-0.77;100.00;99977.91;1022487;28;20306;-45
2024/01/15 01:50:17;;;;;;;1.70;0.57;;;;;;;-0.75;100.00;99977.72;1025262;28;20307;-46
2024/01/15 01:51:31;;;;;;;8.20;1.20;;;;;;;-0.80;100.00;99974.78;1031725;28;20310;-48
2024/01/15 01:52:36;;;;;;;17.02;2.38;;;;;;;-0.80;100.00;99980.03;1034927;28;20301;-46
2024/01/15 01:53:41;;;;;;;1.63;0.85;;;;;;;-0.87;100.00;99981.63;1024344;29;20334;-52
2024/01/15 01:54:36;;;;;;;8.98;1.42;;;;;;;-0.87;100.00;99982.44;1025033;29;20329;-50
2024/01/15 01:55:46;;;;;;;9.57;0.90;;;;;;;-0.91;100.00;99977.72;1023530;28;20307;-45
2024/01/15 01:56:44;;;;;;;8.57;1.05;;;;;;;-0.89;100.00;99978.38;1029425;28;20306;-52
2024/01/15 01:57:57;;;;;;;6.90;1.45;;;;;;;-0.90;100.00;99979.34;1021942;28;20826;-45
2024/01/15 01:58:47;;;;;;;9.10;1.23;;;;;;;-0.94;100.00;99987.53;1025558;29;20306;-50
2024/01/15 01:59:49;;;;;;;6.35;1.17;;;;;;;-0.93;100.00;99978.69;1025314;28;20299;-45
2024/01/15 02:01:12;;;;;;;8.23;1.75;;;;;;;-0.87;100.00;99982.44;1024997;28;20318;-50
2024/01/15 02:02:34;;;;;;;8.52;1.80;;;;;;;-0.85;100.00;99982.28;1029016;28;20458;-47
2024/01/15 02:03:56;;;;;;;5.78;1.10;;;;;;;-0.86;100.00;99981.47;1028803;28;20313;-51
2024/01/15 02:04:58;;;;;;;7.38;0.95;;;;;;;-0.84;100.00;99986.53;1027088;28;20310;-45
2024/01/15 02:05:52;;;;;;;14.45;1.92;;;;;;;-0.80;100.00;99990.47;1028986;28;20303;-45
2024/01/15 02:06:39;;;;;;;7.63;1.88;;;;;;;-0.82;100.00;99995.03;1026307;28;20297;-46
2024/01/15 02:07:52;;;;;;;1.90;0.65;;;;;;;-0.85;100.00;99984.91;1024151;28;20049;-50
2024/01/15 02:08:48;;;;;;;2.63;1.27;;;;;;;-0.86;100.00;99983.28;1025924;28;20310;-50
2024/01/15 02:09:45;;;;;;;;;;;;;;;;;;;;;
2024/01/15 02:10:51;;;;;;;9.88;1.45;;;;;;;-0.73;100.00;99988.84;1024576;28;20382;-50
2024/01/15 02:11:49;;;;;;;8.68;0.85;;;;;;;-0.85;100.00;99985.72;1030370;28;20394;-50
2024/01/15 02:12:48;;;;;;;11.43;2.97;;;;;;;-0.83;100.00;99988.16;1027144;29;20298;-45
2024/01/15 02:13:32;;;;;;;9.20;2.05;;;;;;;-0.83;100.00;99982.94;1021903;29;20396;-51
2024/01/15 02:14:36;;;;;;;10.23;1.25;;;;;;;-0.82;100.00;99980.19;1015881;28;20304;-44
2024/01/15 02:15:36;;;;;;;3.38;1.05;;;;;;;-0.79;100.00;99992.13;1032259;28;20859;-51
2024/01/15 02:16:23;;;;;;;2.65;1.17;;;;;;;-0.77;100.00;99983.13;1029551;28;20364;-48
2024/01/15 02:17:18;;;;;;;11.75;3.10;;;;;;;-0.75;100.00;99988.19;1019744;29;20312;-49
2024/01/15 02:18:10;;;;;;;3.55;0.68;;;;;;;-0.71;100.00;99986.88;1023743;29;20050;-50
2024/01/15 02:19:06;;;;;;;5.35;0.93;;;;;;;-0.76;100.00;99991.78;1020410;29;20692;-47
2024/01/15 02:20:22;;;;;;;21.27;2.17;;;;;;;-0.75;100.00;99985.56;1022554;28;20353;-46
2024/01/15 02:21:14;;;;;;;3.88;1.02;;;;;;;-0.76;100.00;99990.00;1028583;28;20294;-50
2024/01/15 02:22:02;;;;;;;10.32;1.56;;;;;;;-0.77;100.00;99982.31;1035235;28;20736;-50
2024/01/15 02:22:53;;;;;;;6.90;0.93;;;;;;;-0.70;100.00;99985.91;1026586;28;20047;-49
2024/01/15 02:23:52;;;;;;;6.25;1.35;;;;;;;-0.75;100.00;99980.34;1024605;29;20303;-45
2024/01/15 02:24:38;;;;;;;7.72;1.40;;;;;;;-0.76;100.00;99981.31;1026851;28;20736;-46
2024/01/15 02:25:35;;;;;;;6.22;1.40;;;;;;;-0.85;100.00;99980.50;1018723;28;20307;-49
2024/01/15 02:26:41;;;;;;;10.00;1.30;;;;;;;-0.81;100.00;99981.00;1020600;29;20794;-45
2024/01/15 02:27:47;;;;;;;11.22;1.06;;;;;;;-0.81;100.00;99975.78;1021599;29;20115;-49
2024/01/15 02:28:33;;;;;;;4.85;1.20;;;;;;;-0.71;100.00;99976.41;1026831;28;20536;-45
2024/01/15 02:29:32;;;;;;;11.64;0.80;;;;;;;-0.68;100.00;99978.69;1029766;28;20394;-52
2024/01/15 02:30:30;;;;;;;6.20;1.48;;;;;;;-0.75;100.00;99970.72;1022030;29;20607;-50
2024/01/15 02:31:23;;;;;;;4.88;1.05;;;;;;;-0.72;100.00;99969.56;1025911;28;20359;-52
2024/01/15 02:32:16;;;;;;;7.93;0.90;;;;;;;-0.78;100.00;99967.59;1024217;29;20426;-50
2024/01/15 02:33:09;;;;;;;5.20;1.50;;;;;;;-0.66;100.00;99968.88;1032416;28;20345;-46
2024/01/15 02:34:20;;;;;;;3.22;1.20;;;;;;;-0.72;100.00;99966.94;1024707;28;20366;-49
2024/01/15 02:35:24;;;;;;;11.25;1.23;;;;;;;-0.73;100.00;99970.53;1030283;28;20042;-45
2024/01/15 02:36:16;;;;;;;5.20;1.05;;;;;;;-0.70;100.00;99972.81;1029830;28;20305;-45
2024/01/15 02:37:11;;;;;;;8.80;4.18;;;;;;;-0.75;100.00;99975.13;1028762;28;20310;-50
2024/01/15 02:38:08;;;;;;;9.93;1.75;;;;;;;-0.80;100.00;99969.56;1033690;28;20301;-51
2024/01/15 02:39:28;;;;;;;;;;;;;;;;;;;;;
2024/01/15 02:40:15;;;;;;;5.03;0.65;;;;;;;-0.74;100.00;99971.53;1021162;29;20330;-49
2024/01/15 02:41:08;;;;;;;10.57;1.05;;;;;;;-0.73;100.00;99973.16;1033764;28;20391;-51
2024/01/15 02:42:17;;;;;;;3.50;0.98;;;;;;;-0.73;100.00;99960.91;1028733;28;20429;-50
2024/01/15 02:43:08;;;;;;;3.72;1.50;;;;;;;-0.66;100.00;99963.66;1025868;28;20310;-51
2024/01/15 02:43:59;;;;;;;;;;;;;;;;;;;;;
2024/01/15 02:45:13;;;;;;;9.28;1.10;;;;;;;-0.83;100.00;99967.25;1005201;29;20310;-46
2024/01/15 02:46:35;;;;;;;9.70;1.95;;;;;;;-0.76;100.00;99963.03;1032088;28;20027;-51
2024/01/15 02:47:31;;;;;;;5.88;1.00;;;;;;;-0.76;100.00;99960.41;1028937;28;20034;-46
2024/01/15 02:48:44;;;;;;;7.93;1.02;;;;;;;-0.77;100.00;99970.06;1025619;29;20306;-45
2024/01/15 02:49:35;;;;;;;3.33;0.80;;;;;;;-0.88;100.00;99961.72;1020480;29;20855;-50
2024/01/15 02:50:46;;;;;;;9.05;1.38;;;;;;;-0.86;100.00;99967.59;1023153;29;20303;-47
2024/01/15 02:52:02;;;;;;;9.52;1.42;;;;;;;-0.83;100.00;99969.88;1028986;28;20294;-45
2024/01/15 02:53:26;;;;;;;7.75;0.70;;;;;;;-0.80;100.00;99966.97;1022641;28;20311;-50
2024/01/15 02:54:44;;;;;;;1.15;0.73;;;;;;;-0.76;100.00;99963.03;1028474;28;20381;-51
2024/01/15 02:55:31;;;;;;;;;;;;;;;;;;;;;
2024/01/15 02:56:13;;;;;;;3.17;1.02;;;;;;;-0.70;100.00;99965.78;1021760;29;20303;-46
2024/01/15 02:57:33;;;;;;;7.10;0.73;;;;;;;-0.76;100.00;99970.88;1029119;28;20293;-46
2024/01/15 02:58:51;;;;;;;6.18;1.10;;;;;;;-0.74;100.00;99976.75;1032084;28;20314;-47
2024/01/15 02:59:50;;;;;;;6.22;0.50;;;;;;;-0.74;100.00;99976.75;1028419;28;20859;-46
2024/01/15 03:00:33;;;;;;;10.23;1.25;;;;;;;-0.74;100.00;99974.13;1029325;28;20313;-45
2024/01/15 03:01:32;;;;;;;16.20;1.13;;;;;;;-0.69;100.00;99975.28;1030776;28;20298;-50
2024/01/15 03:02:44;;;;;;;8.25;1.15;;;;;;;-0.71;100.00;99981.66;1021047;29;20514;-46
2024/01/15 03:04:10;;;;;;;3.88;0.95;;;;;;;-0.83;100.00;99983.75;1016860;29;20835;-50
2024/01/15 03:05:08;;;;;;;8.82;0.82;;;;;;;-0.82;100.00;99984.56;1028490;28;20432;-50
2024/01/15 03:05:50;;;;;;;1.88;0.70;;;;;;;-0.87;100.00;99981.63;1028296;28;20306;-49
2024/01/15 03:07:05;;;;;;;6.30;0.90;;;;;;;-0.76;100.00;99983.94;1024940;29;20337;-46
2024/01/15 03:08:04;;;;;;;7.97;1.05;;;;;;;-0.79;100.00;99989.50;1024061;28;20402;-47
2024/01/15 03:09:08;;;;;;;0.98;0.63;;;;;;;-0.78;100.00;99984.09;1027790;28;20322;-45
2024/01/15 03:09:52;;;;;;;4.57;0.90;;;;;;;-0.77;100.00;99987.53;1020505;29;20694;-49
2024/01/15 03:11:21;;;;;;;9.57;0.98;;;;;;;-0.76;100.00;99984.75;1021721;29;20651;-50
2024/01/15 03:12:36;;;;;;;7.88;1.90;;;;;;;-0.62;100.00;99985.88;1025730;28;20306;-45
2024/01/15 03:13:22;;;;;;;6.28;1.10;;;;;;;-0.66;100.00;99984.59;1022600;28;20303;-46
2024/01/15 03:14:28;;;;;;;10.93;0.75;;;;;;;-0.66;100.00;99984.59;1018676;29;20435;-45
2024/01/15 03:15:42;;;;;;;5.47;0.68;;;;;;;-0.62;100.00;99980.66;1022320;29;20358;-50
2024/01/15 03:16:37;;;;;;;4.38;1.05;;;;;;;-0.64;100.00;99985.22;1027655;28;20394;-46
2024/01/15 03:17:45;;;;;;;14.16;1.38;;;;;;;-0.65;100.00;99983.59;1028456;28;20326;-45
2024/01/15 03:19:09;;;;;;;6.05;1.17;;;;;;;-0.64;100.00;99987.84;1026194;28;20536;-49
2024/01/15 03:20:31;;;;;;;4.45;0.80;;;;;;;-0.69;100.00;99979.69;1027162;28;20307;-45
2024/01/15 03:21:51;;;;;;;5.40;1.15;;;;;;;-0.72;100.00;99980.84;1026203;28;20341;-46
2024/01/15 03:22:42;;;;;;;12.20;1.30;;;;;;;-0.77;100.00;99977.09;1033897;28;20313;-46
2024/01/15 03:23:42;;;;;;;1.88;0.80;;;;;;;-0.76;100.00;99978.72;1024714;29;20303;-47
2024/01/15 03:24:46;;;;;;;5.93;1.02;;;;;;;-0.74;100.00;99971.53;1015284;29;20698;-46
2024/01/15 03:25:41;;;;;;;4.47;1.40;;;;;;;-0.69;100.00;99983.13;1015825;28;20407;-47
2024/01/15 03:26:40;;;;;;;14.65;1.35;;;;;;;-0.66;100.00;99976.75;1023478;28;20051;-45
2024/01/15 03:27:28;;;;;;;6.25;0.95;;;;;;;-0.66;100.00;99981.97;1016020;29;20376;-49
2024/01/15 03:28:35;;;;;;;3.88;0.55;;;;;;;-0.58;100.00;99974.09;1026839;28;20495;-49
2024/01/15 03:29:38;;;;;;;4.55;1.02;;;;;;;-0.56;100.00;99977.38;1016626;29;20316;-46
2024/01/15 03:30:27;;;;;;;8.82;1.27;;;;;;;-0.66;100.00;99976.75;1013307;29;20319;-49
2024/01/15 03:30:58;;;;;;;6.03;1.88;;;;;;;-0.67;100.00;99982.94;1018683;29;20296;-50
2024/01/15 03:31:30;;;;;;;4.82;0.85;;;;;;;-0.62;100.00;99980.66;1019226;29;20307;-49
2024/01/15 03:32:02;;;;;;;9.85;1.92;;;;;;;-0.64;100.00;99978.19;1025832;28;20800;-50
2024/01/15 03:32:34;;;;;;;5.75;0.90;;;;;;;-0.68;100.00;99983.94;1023946;28;20298;-49
2024/01/15 03:33:05;;;;;;;8.20;1.48;;;;;;;-0.68;100.00;99970.84;1023511;28;20329;-50
2024/01/15 03:33:37;;;;;;;5.80;1.23;;;;;;;-0.68;100.00;99981.31;1023532;28;20307;-50
2024/01/15 03:34:09;;;;;;;7.50;2.00;;;;;;;-0.74;100.00;99971.53;1026917;28;20294;-49
2024/01/15 03:34:41;;;;;;;5.00;0.68;;;;;;;-0.70;100.00;99973.63;1023839;28;20807;-52
2024/01/15 03:35:13;;;;;;;4.15;0.90;;;;;;;-0.62;100.00;99975.41;1025886;28;20295;-50
2024/01/15 03:35:45;;;;;;;6.97;0.77;;;;;;;-0.63;100.00;99977.22;1023411;28;20810;-49
2024/01/15 03:36:16;;;;;;;7.45;1.38;;;;;;;-0.64;100.00;99982.63;1024667;28;20811;-50
2024/01/15 03:36:48;;;;;;;10.95;2.80;;;;;;;-0.63;100.00;99973.78;1026025;28;20771;-51
2024/01/15 03:37:20;;;;;;;5.65;1.17;;;;;;;-0.66;100.00;99974.13;1023665;28;20400;-46
2024/01/15 03:37:51;;;;;;;7.78;1.05;;;;;;;-0.68;100.00;99976.09;1023348;28;20657;-45
2024/01/15 03:38:23;;;;;;;10.00;1.80;;;;;;;-0.64;100.00;99977.38;1023674;28;20297;-46
2024/01/15 03:38:58;;;;;;;5.63;1.15;;;;;;;-0.70;100.00;99970.22;1023133;28;20785;-45
2024/01/15 03:39:29;;;;;;;9.63;2.40;;;;;;;-0.71;100.00;99971.19;1023901;28;20303;-46
2024/01/15 03:40:02;;;;;;;5.97;2.33;;;;;;;-0.75;100.00;99967.28;1024889;28;20294;-46
2024/01/15 03:40:34;;;;;;;12.23;1.70;;;;;;;-0.71;100.00;99971.19;1023115;28;20911;-46
2024/01/15 03:41:06;;;;;;;10.38;1.98;;;;;;;-0.62;100.00;99971.00;1023409;28;20642;-45
2024/01/15 03:41:37;;;;;;;12.52;1.40;;;;;;;-0.59;100.00;99964.63;1023597;28;20297;-45
2024/01/15 03:42:09;;;;;;;14.73;2.30;;;;;;;-0.70;100.00;99978.88;1023475;28;20298;-50
2024/01/15 03:42:41;;;;;;;9.88;1.75;;;;;;;-0.64;100.00;99972.16;1023282;28;20404;-48
2024/01/15 03:43:12;;;;;;;6.20;2.05;;;;;;;-0.62;100.00;99975.41;1027681;28;20293;-50
2024/01/15 03:43:44;;;;;;;8.43;1.42;;;;;;;-0.60;100.00;99976.06;1027735;28;20302;-49
2024/01/15 03:44:16;;;;;;;6.05;1.40;;;;;;;-0.59;100.00;99972.47;1023397;28;20804;-50
2024/01/15 03:44:47;;;;;;;5.95;1.20;;;;;;;-0.62;100.00;99972.81;1027351;28;20866;-44
2024/01/15 03:45:19;;;;;;;10.10;1.58;;;;;;;-0.61;100.00;99971.81;1027237;28;20368;-48
2024/01/15 03:45:50;;;;;;;5.78;1.10;;;;;;;-0.58;100.00;99970.66;1025489;28;20294;-45
2024/01/15 03:46:22;;;;;;;7.32;1.60;;;;;;;-0.57;100.00;99978.34;1023031;28;20564;-46
2024/01/15 03:46:54;;;;;;;10.10;1.65;;;;;;;-0.55;100.00;99976.38;1023341;28;20442;-45
2024/01/15 03:47:26;;;;;;;7.57;1.67;;;;;;;-0.52;100.00;99968.22;1023458;28;20294;-49
2024/01/15 03:47:58;;;;;;;10.98;1.55;;;;;;;-0.51;100.00;99967.25;1024046;28;20307;-49
2024/01/15 03:48:30;;;;;;;13.32;1.58;;;;;;;-0.52;100.00;99975.25;1025544;28;20381;-49
2024/01/15 03:49:02;;;;;;;10.10;1.98;;;;;;;-0.56;100.00;99968.72;1026048;28;21293;-49
2024/01/15 03:49:33;;;;;;;10.20;1.75;;;;;;;-0.54;100.00;99970.19;1027140;28;20306;-50
2024/01/15 03:50:06;;;;;;;10.50;1.35;;;;;;;-0.56;100.00;99966.91;1026959;28;20807;-46
2024/01/15 03:50:37;;;;;;;5.63;1.48;;;;;;;-0.54;100.00;99957.13;1027018;28;21104;-47
2024/01/15 03:51:09;;;;;;;8.65;1.25;;;;;;;-0.54;100.00;99964.97;1023582;28;20302;-45
2024/01/15 03:51:41;;;;;;;8.02;1.77;;;;;;;-0.57;100.00;99957.44;1027189;28;20301;-45
2024/01/15 03:52:12;;;;;;;5.03;0.88;;;;;;;-0.64;100.00;99962.50;1023593;28;20377;-45
2024/01/15 03:52:44;;;;;;;8.10;2.05;;;;;;;-0.65;100.00;99957.44;1025493;28;20899;-49
2024/01/15 03:53:16;;;;;;;8.15;2.15;;;;;;;-0.65;100.00;99960.06;1023590;28;20306;-50
2024/01/15 03:53:47;;;;;;;7.93;1.95;;;;;;;-0.65;100.00;99953.03;1023446;28;20307;-49
2024/01/15 03:54:19;;;;;;;3.75;1.23;;;;;;;-0.64;100.00;99954.66;1022574;28;20401;-50
2024/01/15 03:54:51;;;;;;;5.32;1.17;;;;;;;-0.62;100.00;99957.94;1023304;28;20311;-51
2024/01/15 03:55:23;;;;;;;8.27;1.58;;;;;;;-0.59;100.00;99954.16;1023111;28;20305;-50
2024/01/15 03:55:55;;;;;;;4.70;1.30;;;;;;;-0.57;100.00;99959.22;1023412;28;20417;-49
2024/01/15 03:56:26;;;;;;;6.97;2.00;;;;;;;-0.53;100.00;99957.94;1023135;28;20389;-50
2024/01/15 03:56:58;;;;;;;6.35;1.10;;;;;;;-0.55;100.00;99955.47;1025489;28;20788;-49
2024/01/15 03:57:29;;;;;;;10.43;1.90;;;;;;;-0.64;100.00;99952.06;1026458;28;20302;-45
2024/01/15 03:58:01;;;;;;;5.38;1.13;;;;;;;-0.63;100.00;99952.88;1025633;28;20313;-46
2024/01/15 03:58:33;;;;;;;4.95;0.98;;;;;;;-0.61;100.00;99956.13;1027385;28;20296;-46
2024/01/15 03:59:05;;;;;;;9.35;1.80;;;;;;;-0.67;100.00;99959.41;1031053;28;21553;-45
2024/01/15 03:59:36;;;;;;;11.30;1.63;;;;;;;-0.66;100.00;99950.59;1031077;28;20349;-45
2024/01/15 04:00:08;;;;;;;9.40;1.95;;;;;;;-0.67;100.00;99947.16;1031369;28;20675;-45
2024/01/15 04:00:40;;;;;;;10.57;3.05;;;;;;;-0.64;100.00;99946.00;1026303;28;20302;-46
2024/01/15 04:01:12;;;;;;;6.00;1.15;;;;;;;-0.60;100.00;99942.06;1026734;28;20302;-46
2024/01/15 04:01:50;;;;;;;7.55;1.25;;;;;;;-0.64;100.00;99951.22;1027421;28;20363;-45
2024/01/15 04:02:22;;;;;;;7.05;2.78;;;;;;;-0.70;100.00;99946.69;1027699;28;20333;-45
2024/01/15 04:02:54;;;;;;;9.95;1.25;;;;;;;-0.65;100.00;99945.19;1026985;28;20293;-46
2024/01/15 04:03:25;;;;;;;6.40;1.55;;;;;;;-0.64;100.00;99946.81;1027135;28;20460;-46
2024/01/15 04:03:57;;;;;;;10.88;1.40;;;;;;;-0.70;100.00;99951.91;1025673;28;20804;-46
2024/01/15 04:04:29;;;;;;;5.97;1.15;;;;;;;-0.67;100.00;99938.50;1022628;28;20295;-45
2024/01/15 04:05:01;;;;;;;9.20;2.17;;;;;;;-0.69;100.00;99948.31;1023697;28;20313;-46
2024/01/15 04:05:32;;;;;;;6.50;2.20;;;;;;;-0.70;100.00;99951.91;1026898;28;20405;-45
2024/01/15 04:06:04;;;;;;;9.60;1.42;;;;;;;-0.69;100.00;99935.22;1025172;28;20303;-46
2024/01/15 04:06:36;;;;;;;5.20;1.17;;;;;;;-0.64;100.00;99941.59;1023570;28;20298;-46
2024/01/15 04:07:09;;;;;;;6.95;2.03;;;;;;;-0.59;100.00;99938.47;1025897;28;20378;-45
2024/01/15 04:07:41;;;;;;;8.52;2.25;;;;;;;-0.53;100.00;99931.78;1026738;28;20768;-46
2024/01/15 04:08:12;;;;;;;5.38;1.50;;;;;;;-0.58;100.00;99934.88;1024680;28;20717;-46
2024/01/15 04:08:44;;;;;;;6.40;0.80;;;;;;;-0.60;100.00;99926.38;1024599;28;20302;-45
2024/01/15 04:09:16;;;;;;;8.40;1.70;;;;;;;-0.65;100.00;99926.06;1026867;28;20294;-46
2024/01/15 04:09:48;;;;;;;3.78;1.50;;;;;;;-0.52;100.00;99934.22;1024470;28;20325;-46
2024/01/15 04:10:19;;;;;;;9.18;1.73;;;;;;;-0.49;100.00;99939.13;1026642;28;20301;-49
2024/01/15 04:10:51;;;;;;;7.80;1.45;;;;;;;-0.50;100.00;99921.81;1023075;28;20302;-49
2024/01/15 04:11:23;;;;;;;9.68;1.88;;;;;;;-0.38;100.00;99936.16;1022865;28;20486;-49
2024/01/15 04:11:54;;;;;;;9.82;2.30;;;;;;;-0.46;100.00;99924.91;1022927;28;20397;-50
2024/01/15 04:12:26;;;;;;;4.50;1.58;;;;;;;-0.40;100.00;99932.88;1023318;28;20309;-49
2024/01/15 04:12:59;;;;;;;6.20;1.67;;;;;;;-0.38;100.00;99935.31;1022646;28;20302;-46
2024/01/15 04:13:34;;;;;;;3.00;1.02;;;;;;;-0.44;100.00;99933.38;1023063;28;20307;-44
2024/01/15 04:14:05;;;;;;;9.77;1.48;;;;;;;-0.47;100.00;99926.69;1022917;28;20789;-45
2024/01/15 04:14:37;;;;;;;3.55;0.82;;;;;;;-0.44;100.00;99931.59;1023255;28;20303;-45